createdAt,value
2023-03-18T00:02:18.714Z,9.60
2023-03-18T00:05:07.650Z,9.60
2023-03-18T00:07:54.770Z,10.80
2023-03-18T00:10:41.425Z,9.70
2023-03-18T00:13:29.391Z,9.90
2023-03-18T00:16:17.189Z,10.00
2023-03-18T00:19:04.646Z,9.70
2023-03-18T00:21:51.861Z,10.80
2023-03-18T00:24:38.488Z,10.60
2023-03-18T00:27:25.325Z,9.40
2023-03-18T00:30:12.961Z,9.40
2023-03-18T00:33:00.323Z,8.80
2023-03-18T00:35:48.185Z,12.00
2023-03-18T00:38:35.697Z,9.10
2023-03-18T00:41:22.296Z,8.80
2023-03-18T00:44:09.448Z,9.40
2023-03-18T00:46:56.020Z,8.90
2023-03-18T00:49:42.837Z,9.80
2023-03-18T00:52:32.023Z,10.10
2023-03-18T00:55:18.737Z,8.80
2023-03-18T00:58:05.436Z,10.00
2023-03-18T01:00:52.744Z,9.50
2023-03-18T01:03:44.110Z,9.10
2023-03-18T01:06:34.091Z,9.50
2023-03-18T01:09:21.099Z,8.80
2023-03-18T01:12:09.766Z,8.90
2023-03-18T01:14:56.801Z,8.90
2023-03-18T01:17:44.396Z,9.90
2023-03-18T01:20:31.322Z,8.40
2023-03-18T01:23:18.517Z,9.00
2023-03-18T01:26:07.731Z,9.50
2023-03-18T01:28:54.260Z,8.30
2023-03-18T01:31:41.161Z,8.90
2023-03-18T01:34:28.950Z,9.40
2023-03-18T01:37:15.235Z,8.90
2023-03-18T01:40:01.962Z,11.40
2023-03-18T01:42:56.731Z,8.70
2023-03-18T01:45:50.054Z,10.20
2023-03-18T01:48:39.973Z,9.90
2023-03-18T01:51:27.452Z,9.40
2023-03-18T01:54:15.591Z,9.20
2023-03-18T01:57:03.815Z,10.40
2023-03-18T01:59:53.287Z,8.80
2023-03-18T02:02:42.523Z,7.50
2023-03-18T02:05:29.826Z,9.30
2023-03-18T02:08:17.447Z,9.60
2023-03-18T02:11:04.742Z,8.50
2023-03-18T02:13:52.790Z,7.10
2023-03-18T02:16:51.658Z,9.00
2023-03-18T02:20:18.770Z,8.00
2023-03-18T02:23:22.748Z,8.20
2023-03-18T02:26:20.976Z,8.40
2023-03-18T02:29:09.043Z,8.20
2023-03-18T02:31:58.684Z,8.80
2023-03-18T02:34:45.713Z,9.20
2023-03-18T02:37:34.287Z,7.60
2023-03-18T02:40:31.455Z,7.60
2023-03-18T02:43:23.665Z,7.40
2023-03-18T02:46:13.856Z,8.70
2023-03-18T02:49:02.659Z,8.60
2023-03-18T02:51:50.494Z,7.20
2023-03-18T02:54:37.498Z,8.30
2023-03-18T02:57:23.886Z,8.30
2023-03-18T03:00:13.603Z,5.50
2023-03-18T03:03:01.852Z,7.40
2023-03-18T03:05:48.790Z,7.40
2023-03-18T03:08:35.649Z,9.40
2023-03-18T03:11:23.955Z,7.20
2023-03-18T03:14:11.812Z,8.00
2023-03-18T03:16:58.939Z,7.30
2023-03-18T03:19:46.204Z,8.50
2023-03-18T03:22:34.379Z,7.20
2023-03-18T03:25:21.031Z,7.40
2023-03-18T03:28:08.777Z,6.50
2023-03-18T03:30:55.969Z,9.70
2023-03-18T03:33:44.085Z,8.10
2023-03-18T03:36:31.066Z,9.30
2023-03-18T03:39:17.651Z,7.60
2023-03-18T03:42:04.020Z,7.60
2023-03-18T03:44:51.062Z,7.60
2023-03-18T03:47:37.660Z,9.70
2023-03-18T03:50:24.283Z,8.40
2023-03-18T03:53:11.141Z,10.10
2023-03-18T03:55:59.247Z,9.10
2023-03-18T03:58:47.038Z,8.90
2023-03-18T04:01:34.848Z,8.20
2023-03-18T04:04:21.551Z,7.40
2023-03-18T04:07:08.347Z,8.20
2023-03-18T04:09:56.097Z,7.70
2023-03-18T04:12:45.967Z,8.10
2023-03-18T04:15:32.789Z,7.40
2023-03-18T04:18:19.870Z,8.20
2023-03-18T04:21:08.171Z,7.20
2023-03-18T04:23:55.318Z,6.10
2023-03-18T04:26:42.149Z,5.90
2023-03-18T04:29:29.194Z,5.80
2023-03-18T04:32:16.223Z,6.30
2023-03-18T04:35:03.485Z,9.10
2023-03-18T04:37:50.568Z,6.20
2023-03-18T04:40:37.015Z,5.20
2023-03-18T04:43:23.360Z,6.60
2023-03-18T04:46:11.132Z,8.30
2023-03-18T04:48:58.620Z,6.90
2023-03-18T04:51:45.794Z,5.70
2023-03-18T04:54:32.413Z,6.90
2023-03-18T04:57:19.621Z,7.90
2023-03-18T05:00:10.416Z,7.50
2023-03-18T05:02:58.259Z,6.30
2023-03-18T05:05:45.161Z,8.70
2023-03-18T05:08:31.973Z,6.30
2023-03-18T05:11:19.552Z,6.70
2023-03-18T05:14:06.337Z,6.70
2023-03-18T05:16:53.838Z,5.50
2023-03-18T05:19:41.069Z,5.90
2023-03-18T05:22:27.573Z,6.60
2023-03-18T05:25:13.932Z,6.80
2023-03-18T05:28:01.734Z,7.00
2023-03-18T05:30:48.546Z,6.80
2023-03-18T05:33:35.378Z,6.70
2023-03-18T05:36:22.366Z,8.00
2023-03-18T05:39:08.915Z,7.20
2023-03-18T05:41:54.964Z,8.40
2023-03-18T05:44:42.329Z,6.40
2023-03-18T05:47:28.763Z,7.40
2023-03-18T05:50:17.252Z,6.00
2023-03-18T05:53:05.608Z,7.10
2023-03-18T05:55:52.087Z,13.10
2023-03-18T05:58:38.988Z,7.60
2023-03-18T06:01:26.088Z,6.40
2023-03-18T06:04:13.354Z,7.20
2023-03-18T06:07:01.563Z,8.10
2023-03-18T06:09:48.920Z,6.60
2023-03-18T06:12:36.168Z,7.80
2023-03-18T06:15:24.584Z,7.40
2023-03-18T06:18:11.441Z,6.40
2023-03-18T06:20:58.585Z,6.20
2023-03-18T06:23:45.580Z,7.80
2023-03-18T06:26:32.919Z,7.40
2023-03-18T06:29:20.497Z,6.90
2023-03-18T06:32:08.370Z,8.60
2023-03-18T06:34:55.983Z,7.30
2023-03-18T06:37:43.475Z,9.80
2023-03-18T06:40:31.066Z,7.00
2023-03-18T06:43:18.940Z,6.80
2023-03-18T06:46:06.222Z,7.90
2023-03-18T06:48:54.771Z,7.00
2023-03-18T06:51:44.589Z,8.90
2023-03-18T06:54:31.468Z,7.70
2023-03-18T06:57:18.938Z,6.60
2023-03-18T07:00:06.892Z,6.90
2023-03-18T07:02:54.034Z,6.60
2023-03-18T07:05:42.346Z,7.60
2023-03-18T07:08:29.408Z,9.70
2023-03-18T07:11:17.007Z,7.10
2023-03-18T07:14:04.450Z,6.60
2023-03-18T07:16:52.243Z,7.10
2023-03-18T07:19:40.173Z,7.70
2023-03-18T07:22:36.547Z,6.20
2023-03-18T07:25:23.629Z,6.30
2023-03-18T07:28:11.880Z,6.90
2023-03-18T07:30:58.790Z,5.90
2023-03-18T07:33:45.071Z,5.10
2023-03-18T07:36:31.971Z,7.10
2023-03-18T07:39:18.536Z,6.40
2023-03-18T07:42:06.738Z,6.60
2023-03-18T07:44:53.085Z,6.30
2023-03-18T07:47:39.788Z,6.50
2023-03-18T07:50:26.489Z,7.40
2023-03-18T07:53:16.566Z,5.90
2023-03-18T07:56:03.486Z,4.90
2023-03-18T07:58:51.097Z,6.10
2023-03-18T08:01:37.628Z,7.40
2023-03-18T08:04:25.358Z,6.20
2023-03-18T08:07:18.707Z,5.80
2023-03-18T08:10:11.596Z,5.40
2023-03-18T08:13:00.627Z,6.60
2023-03-18T08:16:19.652Z,5.00
2023-03-18T08:29:46.929Z,6.10
2023-03-18T08:32:44.800Z,6.30
2023-03-18T08:36:52.393Z,8.30
2023-03-18T08:51:35.196Z,4.40
2023-03-18T08:54:38.716Z,7.00
2023-03-18T09:08:59.489Z,4.80
2023-03-18T09:12:15.715Z,4.40
2023-03-18T09:15:35.187Z,6.60
2023-03-18T09:20:02.964Z,3.20
2023-03-18T09:23:18.385Z,8.10
2023-03-18T09:26:48.601Z,5.10
2023-03-18T09:30:51.175Z,5.40
2023-03-18T09:34:25.785Z,5.40
2023-03-18T09:38:30.322Z,6.50
2023-03-18T09:42:31.536Z,5.80
2023-03-18T09:46:04.260Z,4.20
2023-03-18T09:49:40.875Z,5.20
2023-03-18T09:53:26.997Z,5.50
2023-03-18T09:56:36.272Z,4.20
2023-03-18T10:00:30.102Z,5.20
2023-03-18T10:03:56.529Z,5.60
2023-03-18T10:06:45.795Z,5.50
2023-03-18T10:14:08.899Z,4.70
2023-03-18T10:17:44.833Z,7.20
2023-03-18T10:22:25.621Z,4.90
2023-03-18T10:25:35.685Z,7.10
2023-03-18T10:30:05.583Z,5.80
2023-03-18T10:43:38.255Z,5.50
2023-03-18T10:46:38.767Z,4.60
2023-03-18T10:50:43.819Z,4.20
2023-03-18T10:53:39.700Z,4.70
2023-03-18T10:56:32.746Z,5.90
2023-03-18T11:00:20.652Z,6.50
2023-03-18T11:02:44.994Z,7.60
2023-03-18T11:16:32.141Z,7.80
2023-03-18T11:19:51.713Z,4.90
2023-03-18T11:23:36.189Z,4.70
2023-03-18T11:28:19.672Z,5.10
2023-03-18T11:31:21.305Z,5.80
2023-03-18T11:46:12.137Z,4.90
2023-03-18T12:00:56.082Z,5.60
2023-03-18T12:42:30.268Z,8.00
2023-03-18T12:56:32.079Z,5.10
2023-03-18T13:10:48.382Z,3.40
2023-03-18T13:25:41.455Z,4.80
2023-03-18T13:40:54.798Z,6.60
2023-03-18T13:44:43.662Z,7.60
2023-03-18T13:59:09.271Z,3.30
2023-03-18T14:16:13.832Z,4.40
2023-03-18T14:33:36.362Z,6.30
2023-03-18T14:37:32.195Z,3.80
2023-03-18T14:51:35.435Z,6.40
2023-03-18T15:05:15.309Z,6.20
2023-03-18T15:18:56.578Z,7.70
2023-03-18T15:22:04.647Z,4.50
2023-03-18T15:25:05.521Z,6.70
2023-03-18T15:28:17.974Z,6.30
2023-03-18T15:31:08.426Z,5.80
2023-03-18T15:34:18.944Z,7.10
2023-03-18T15:37:41.961Z,6.80
2023-03-18T15:40:35.463Z,6.90
2023-03-18T15:43:31.499Z,6.70
2023-03-18T15:59:28.669Z,6.30
2023-03-18T16:02:47.567Z,7.10
2023-03-18T16:06:26.400Z,5.90
2023-03-18T16:10:05.342Z,6.70
2023-03-18T16:13:44.098Z,7.80
2023-03-18T16:16:55.305Z,6.70
2023-03-18T16:20:54.377Z,7.80
2023-03-18T16:24:50.739Z,7.70
2023-03-18T16:29:06.240Z,7.80
2023-03-18T16:32:40.757Z,7.80
2023-03-18T16:35:57.072Z,7.90
2023-03-18T16:39:34.317Z,9.30
2023-03-18T16:43:03.243Z,13.50
2023-03-18T16:47:01.598Z,7.40
2023-03-18T16:51:03.133Z,9.70
2023-03-18T16:54:41.917Z,10.80
2023-03-18T16:58:21.138Z,10.70
2023-03-18T17:01:07.888Z,11.70
2023-03-18T17:03:56.449Z,11.10
2023-03-18T17:06:43.869Z,10.70
2023-03-18T17:09:32.264Z,10.50
2023-03-18T17:12:21.694Z,12.50
2023-03-18T17:15:12.842Z,10.30
2023-03-18T17:18:00.037Z,13.40
2023-03-18T17:20:48.954Z,11.10
2023-03-18T17:25:27.013Z,10.80
2023-03-18T17:28:58.701Z,11.40
2023-03-18T17:32:26.184Z,12.20
2023-03-18T17:35:17.698Z,13.30
2023-03-18T17:38:17.573Z,12.40
2023-03-18T17:41:18.822Z,12.20
2023-03-18T17:45:04.250Z,12.20
2023-03-18T18:00:00.899Z,16.70
2023-03-18T18:13:31.096Z,15.90
2023-03-18T18:16:19.587Z,18.60
2023-03-18T18:19:07.707Z,18.70
2023-03-18T18:21:54.934Z,17.50
2023-03-18T18:24:44.146Z,19.10
2023-03-18T18:27:31.001Z,18.70
2023-03-18T18:30:22.586Z,18.70
2023-03-18T18:33:09.404Z,17.00
2023-03-18T18:36:01.653Z,17.20
2023-03-18T18:38:47.994Z,19.50
2023-03-18T18:41:34.447Z,19.20
2023-03-18T18:44:21.807Z,19.50
2023-03-18T18:49:31.350Z,20.90
2023-03-18T18:52:19.447Z,19.00
2023-03-18T18:55:11.651Z,18.10
2023-03-18T18:57:58.599Z,19.60
2023-03-18T19:00:49.917Z,17.00
2023-03-18T19:03:37.042Z,17.50
2023-03-18T19:06:27.382Z,20.00
2023-03-18T19:09:19.916Z,19.00
2023-03-18T19:12:15.710Z,20.70
2023-03-18T19:15:15.348Z,20.50
2023-03-18T19:18:07.480Z,21.00
2023-03-18T19:20:59.572Z,21.70
2023-03-18T19:23:46.836Z,21.50
2023-03-18T19:26:33.322Z,20.20
2023-03-18T19:29:20.534Z,22.70
2023-03-18T19:32:14.808Z,20.00
2023-03-18T19:35:03.464Z,20.80
2023-03-18T19:37:50.445Z,21.00
2023-03-18T19:40:37.271Z,20.80
2023-03-18T19:43:25.068Z,20.90
2023-03-18T19:46:28.338Z,19.60
2023-03-18T19:49:28.029Z,19.30
2023-03-18T19:52:28.178Z,20.80
2023-03-18T19:55:16.594Z,21.30
2023-03-18T19:58:05.939Z,18.80
2023-03-18T20:00:53.949Z,18.70
2023-03-18T20:03:40.744Z,20.50
2023-03-18T20:06:27.654Z,19.30
2023-03-18T20:09:15.069Z,20.50
2023-03-18T20:12:05.775Z,19.00
2023-03-18T20:14:52.878Z,20.80
2023-03-18T20:17:44.766Z,19.70
2023-03-18T20:20:32.792Z,18.30
2023-03-18T20:23:25.628Z,16.60
2023-03-18T20:26:12.500Z,18.60
2023-03-18T20:28:59.600Z,18.10
2023-03-18T20:32:04.875Z,14.90
2023-03-18T20:34:51.505Z,17.80
2023-03-18T20:37:38.823Z,18.60
2023-03-18T20:40:28.497Z,18.30
2023-03-18T20:43:20.048Z,19.00
2023-03-18T20:46:13.337Z,19.80
2023-03-18T20:49:06.029Z,20.80
2023-03-18T20:51:52.763Z,16.30
2023-03-18T20:54:39.643Z,17.90
2023-03-18T20:57:27.801Z,18.40
2023-03-18T21:00:23.141Z,18.70
2023-03-18T21:03:25.829Z,19.50
2023-03-18T21:06:16.835Z,17.60
2023-03-18T21:09:04.950Z,16.90
2023-03-18T21:11:51.422Z,17.30
2023-03-18T21:14:38.097Z,16.70
2023-03-18T21:17:28.467Z,18.40
2023-03-18T21:20:27.633Z,17.30
2023-03-18T21:23:36.924Z,17.00
2023-03-18T21:26:35.087Z,15.70
2023-03-18T21:29:22.048Z,17.30
2023-03-18T21:32:26.573Z,17.30
2023-03-18T21:35:25.781Z,18.20
2023-03-18T21:38:12.203Z,18.60
2023-03-18T21:41:00.807Z,17.30
2023-03-18T21:43:50.858Z,17.90
2023-03-18T21:46:37.445Z,19.80
2023-03-18T21:49:24.052Z,19.10
2023-03-18T21:52:18.661Z,17.70
2023-03-18T21:55:06.836Z,17.70
2023-03-18T21:57:53.299Z,18.60
2023-03-18T22:00:40.029Z,18.40
2023-03-18T22:03:29.436Z,21.60
2023-03-18T22:06:16.993Z,18.40
2023-03-18T22:09:03.882Z,17.40
2023-03-18T22:11:50.730Z,18.30
2023-03-18T22:14:37.490Z,17.20
2023-03-18T22:17:27.889Z,20.20
2023-03-18T22:20:15.035Z,18.80
2023-03-18T22:23:10.491Z,17.50
2023-03-18T22:25:58.170Z,18.20
2023-03-18T22:28:45.655Z,18.50
2023-03-18T22:31:32.412Z,20.50
2023-03-18T22:34:23.710Z,18.70
2023-03-18T22:37:19.825Z,19.00
2023-03-18T22:40:15.455Z,19.90
2023-03-18T22:43:01.956Z,19.30
2023-03-18T22:45:48.431Z,19.00
2023-03-18T22:48:35.652Z,18.50
2023-03-18T22:51:26.562Z,18.20
2023-03-18T22:54:19.089Z,19.50
2023-03-18T22:57:07.240Z,17.90
2023-03-18T22:59:56.185Z,20.70
2023-03-18T23:02:42.772Z,18.00
2023-03-18T23:05:29.639Z,19.90
2023-03-18T23:08:17.247Z,18.70
2023-03-18T23:11:04.305Z,21.00
2023-03-18T23:13:52.198Z,18.80
2023-03-18T23:16:38.970Z,20.40
2023-03-18T23:19:25.946Z,19.70
2023-03-18T23:22:16.016Z,20.00
2023-03-18T23:25:03.163Z,23.60
2023-03-18T23:27:49.842Z,22.60
2023-03-18T23:30:40.686Z,23.00
2023-03-18T23:33:27.318Z,21.70
2023-03-18T23:36:14.143Z,23.90
2023-03-18T23:39:01.324Z,23.30
2023-03-18T23:41:48.061Z,22.30
2023-03-18T23:44:34.598Z,23.90
2023-03-18T23:47:21.717Z,24.80
2023-03-18T23:50:10.794Z,25.30
2023-03-18T23:52:57.470Z,22.80
2023-03-18T23:55:44.434Z,24.00
2023-03-18T23:58:33.496Z,23.90
